sensor_id;sensor_type;location;lat;lon;timestamp;pressure;altitude;pressure_sealevel;temperature;humidity
53719;BME280;39616;48.872;9.390;2024-02-21T00:02:24;99367.84;;;6.30;96.99
53719;BME280;39616;48.872;9.390;2024-02-21T00:04:54;99363.91;;;6.38;96.17
53719;BME280;39616;48.872;9.390;2024-02-21T00:07:25;99363.34;;;6.36;96.80
53719;BME280;39616;48.872;9.390;2024-02-21T00:09:55;99368.38;;;6.32;98.00
53719;BME280;39616;48.872;9.390;2024-02-21T00:12:26;99361.59;;;6.29;97.63
53719;BME280;39616;48.872;9.390;2024-02-21T00:14:56;99356.06;;;6.36;96.37
53719;BME280;39616;48.872;9.390;2024-02-21T00:17:27;99353.16;;;6.38;96.07
53719;BME280;39616;48.872;9.390;2024-02-21T00:19:57;99356.00;;;6.31;96.22
53719;BME280;39616;48.872;9.390;2024-02-21T00:22:27;99349.69;;;6.25;97.41
53719;BME280;39616;48.872;9.390;2024-02-21T00:25:01;99351.22;;;6.21;96.20
53719;BME280;39616;48.872;9.390;2024-02-21T00:27:31;99342.25;;;6.16;98.08
53719;BME280;39616;48.872;9.390;2024-02-21T00:30:03;99332.78;;;6.13;99.06
53719;BME280;39616;48.872;9.390;2024-02-21T00:32:33;99330.09;;;6.13;97.22
53719;BME280;39616;48.872;9.390;2024-02-21T00:35:06;99323.63;;;6.14;98.77
53719;BME280;39616;48.872;9.390;2024-02-21T00:37:37;99316.53;;;6.08;98.61
53719;BME280;39616;48.872;9.390;2024-02-21T00:40:07;99311.22;;;6.13;96.41
53719;BME280;39616;48.872;9.390;2024-02-21T00:42:38;99316.94;;;6.17;96.46
53719;BME280;39616;48.872;9.390;2024-02-21T00:45:08;99318.03;;;6.16;95.71
53719;BME280;39616;48.872;9.390;2024-02-21T00:47:39;99309.34;;;6.14;96.59
53719;BME280;39616;48.872;9.390;2024-02-21T00:50:09;99315.00;;;6.12;96.75
53719;BME280;39616;48.872;9.390;2024-02-21T00:52:40;99307.00;;;6.17;95.59
53719;BME280;39616;48.872;9.390;2024-02-21T00:55:10;99309.03;;;6.10;96.54
53719;BME280;39616;48.872;9.390;2024-02-21T00:57:40;99316.53;;;6.08;96.26
53719;BME280;39616;48.872;9.390;2024-02-21T01:00:11;99307.72;;;6.13;96.68
53719;BME280;39616;48.872;9.390;2024-02-21T01:02:41;99300.78;;;6.17;94.83
53719;BME280;39616;48.872;9.390;2024-02-21T01:05:12;99303.00;;;6.20;94.51
53719;BME280;39616;48.872;9.390;2024-02-21T01:07:42;99304.63;;;6.21;94.38
53719;BME280;39616;48.872;9.390;2024-02-21T01:10:12;99300.63;;;6.23;93.63
53719;BME280;39616;48.872;9.390;2024-02-21T01:12:43;99297.69;;;6.25;95.23
53719;BME280;39616;48.872;9.390;2024-02-21T01:15:13;99294.78;;;6.26;94.47
53719;BME280;39616;48.872;9.390;2024-02-21T01:17:43;99286.34;;;6.23;94.61
53719;BME280;39616;48.872;9.390;2024-02-21T01:20:14;99285.63;;;6.27;93.94
53719;BME280;39616;48.872;9.390;2024-02-21T01:22:44;99277.28;;;6.29;94.49
53719;BME280;39616;48.872;9.390;2024-02-21T01:25:14;99270.53;;;6.26;94.14
53719;BME280;39616;48.872;9.390;2024-02-21T01:27:45;99270.53;;;6.26;94.57
53719;BME280;39616;48.872;9.390;2024-02-21T01:30:15;99260.78;;;6.25;95.14
53719;BME280;39616;48.872;9.390;2024-02-21T01:32:45;99261.38;;;6.27;94.96
53719;BME280;39616;48.872;9.390;2024-02-21T01:35:15;99267.03;;;6.26;94.48
53719;BME280;39616;48.872;9.390;2024-02-21T01:37:46;99249.22;;;6.25;95.08
53719;BME280;39616;48.872;9.390;2024-02-21T01:40:16;99257.88;;;6.27;94.72
53719;BME280;39616;48.872;9.390;2024-02-21T01:42:46;99247.59;;;6.24;95.08
53719;BME280;39616;48.872;9.390;2024-02-21T01:45:18;99251.66;;;6.26;93.85
53719;BME280;39616;48.872;9.390;2024-02-21T01:47:49;99240.38;;;6.29;92.91
53719;BME280;39616;48.872;9.390;2024-02-21T01:50:22;99237.69;;;6.29;92.79
53719;BME280;39616;48.872;9.390;2024-02-21T01:52:53;99236.56;;;6.25;93.09
53719;BME280;39616;48.872;9.390;2024-02-21T01:55:24;99226.84;;;6.24;94.17
53719;BME280;39616;48.872;9.390;2024-02-21T01:57:54;99222.28;;;6.25;94.39
53719;BME280;39616;48.872;9.390;2024-02-21T02:00:25;99226.03;;;6.24;94.81
53719;BME280;39616;48.872;9.390;2024-02-21T02:02:56;99217.16;;;6.23;93.38
53719;BME280;39616;48.872;9.390;2024-02-21T02:05:27;99213.53;;;6.18;93.64
53719;BME280;39616;48.872;9.390;2024-02-21T02:07:57;99211.91;;;6.17;94.94
53719;BME280;39616;48.872;9.390;2024-02-21T02:10:27;99214.53;;;6.12;95.35
53719;BME280;39616;48.872;9.390;2024-02-21T02:12:58;99204.09;;;6.15;94.86
53719;BME280;39616;48.872;9.390;2024-02-21T02:15:37;99201.63;;;6.14;94.91
53719;BME280;39616;48.872;9.390;2024-02-21T02:18:08;99203.09;;;6.21;92.99
53719;BME280;39616;48.872;9.390;2024-02-21T02:20:39;99199.25;;;6.17;93.59
53719;BME280;39616;48.872;9.390;2024-02-21T02:23:11;99191.03;;;6.24;92.53
53719;BME280;39616;48.872;9.390;2024-02-21T02:25:42;99187.75;;;6.22;92.62
53719;BME280;39616;48.872;9.390;2024-02-21T02:28:13;99180.41;;;6.17;93.91
53719;BME280;39616;48.872;9.390;2024-02-21T02:30:44;99177.16;;;6.15;93.13
53719;BME280;39616;48.872;9.390;2024-02-21T02:33:14;99172.91;;;6.19;93.19
53719;BME280;39616;48.872;9.390;2024-02-21T02:35:44;99157.56;;;6.20;94.00
53719;BME280;39616;48.872;9.390;2024-02-21T02:38:15;99152.72;;;6.22;93.79
53719;BME280;39616;48.872;9.390;2024-02-21T02:40:46;99154.06;;;6.19;93.29
53719;BME280;39616;48.872;9.390;2024-02-21T02:43:16;99160.50;;;6.18;93.71
53719;BME280;39616;48.872;9.390;2024-02-21T02:45:46;99152.59;;;6.12;94.13
53719;BME280;39616;48.872;9.390;2024-02-21T02:48:17;99151.59;;;6.18;93.27
53719;BME280;39616;48.872;9.390;2024-02-21T02:50:47;99143.63;;;6.23;92.74
53719;BME280;39616;48.872;9.390;2024-02-21T02:53:17;99138.72;;;6.20;92.92
53719;BME280;39616;48.872;9.390;2024-02-21T02:55:48;99142.81;;;6.22;93.58
53719;BME280;39616;48.872;9.390;2024-02-21T02:58:18;99137.72;;;6.26;92.37
53719;BME280;39616;48.872;9.390;2024-02-21T03:00:48;99137.47;;;6.27;93.43
53719;BME280;39616;48.872;9.390;2024-02-21T03:03:19;99134.78;;;6.27;95.03
53719;BME280;39616;48.872;9.390;2024-02-21T03:05:49;99126.38;;;6.24;96.24
53719;BME280;39616;48.872;9.390;2024-02-21T03:08:19;99113.84;;;6.13;97.64
53719;BME280;39616;48.872;9.390;2024-02-21T03:10:49;99116.69;;;6.06;99.56
53719;BME280;39616;48.872;9.390;2024-02-21T03:13:20;99124.38;;;5.97;100.00
53719;BME280;39616;48.872;9.390;2024-02-21T03:15:50;99134.47;;;5.90;100.00
53719;BME280;39616;48.872;9.390;2024-02-21T03:18:20;99128.44;;;5.83;100.00
53719;BME280;39616;48.872;9.390;2024-02-21T03:20:50;99140.19;;;5.77;100.00
53719;BME280;39616;48.872;9.390;2024-02-21T03:23:21;99132.69;;;5.79;100.00
53719;BME280;39616;48.872;9.390;2024-02-21T03:25:51;99130.81;;;5.79;100.00
53719;BME280;39616;48.872;9.390;2024-02-21T03:28:21;99147.50;;;5.81;100.00
53719;BME280;39616;48.872;9.390;2024-02-21T03:30:52;99149.06;;;5.77;100.00
53719;BME280;39616;48.872;9.390;2024-02-21T03:33:22;99147.03;;;5.85;100.00
53719;BME280;39616;48.872;9.390;2024-02-21T03:35:53;99141.41;;;5.86;100.00
53719;BME280;39616;48.872;9.390;2024-02-21T03:38:23;99124.94;;;5.82;100.00
53719;BME280;39616;48.872;9.390;2024-02-21T03:40:54;99116.53;;;5.79;100.00
53719;BME280;39616;48.872;9.390;2024-02-21T03:43:24;99108.38;;;5.74;100.00
53719;BME280;39616;48.872;9.390;2024-02-21T03:45:54;99103.50;;;5.71;100.00
53719;BME280;39616;48.872;9.390;2024-02-21T03:48:25;99104.22;;;5.66;100.00
53719;BME280;39616;48.872;9.390;2024-02-21T03:50:55;99102.75;;;5.58;100.00
53719;BME280;39616;48.872;9.390;2024-02-21T03:53:25;99099.75;;;5.55;100.00
53719;BME280;39616;48.872;9.390;2024-02-21T03:55:56;99116.94;;;5.54;100.00
53719;BME280;39616;48.872;9.390;2024-02-21T03:58:27;99104.56;;;5.53;100.00
53719;BME280;39616;48.872;9.390;2024-02-21T04:00:59;99098.38;;;5.52;100.00
53719;BME280;39616;48.872;9.390;2024-02-21T04:03:30;99103.16;;;5.50;100.00
53719;BME280;39616;48.872;9.390;2024-02-21T04:06:01;99096.72;;;5.51;100.00
53719;BME280;39616;48.872;9.390;2024-02-21T04:08:31;99088.09;;;5.49;100.00
53719;BME280;39616;48.872;9.390;2024-02-21T04:11:02;99085.97;;;5.51;100.00
53719;BME280;39616;48.872;9.390;2024-02-21T04:13:32;99082.78;;;5.54;100.00
53719;BME280;39616;48.872;9.390;2024-02-21T04:16:02;99073.50;;;5.62;100.00
53719;BME280;39616;48.872;9.390;2024-02-21T04:18:33;99077.09;;;5.68;100.00
53719;BME280;39616;48.872;9.390;2024-02-21T04:21:04;99083.50;;;5.67;100.00
53719;BME280;39616;48.872;9.390;2024-02-21T04:23:34;99077.09;;;5.68;100.00
53719;BME280;39616;48.872;9.390;2024-02-21T04:26:05;99075.94;;;5.64;100.00
53719;BME280;39616;48.872;9.390;2024-02-21T04:28:35;99056.28;;;5.63;100.00
53719;BME280;39616;48.872;9.390;2024-02-21T04:31:05;99037.69;;;5.62;100.00
53719;BME280;39616;48.872;9.390;2024-02-21T04:33:36;99049.75;;;5.59;100.00
53719;BME280;39616;48.872;9.390;2024-02-21T04:36:06;99053.78;;;5.56;100.00
53719;BME280;39616;48.872;9.390;2024-02-21T04:38:36;99059.66;;;5.53;100.00
53719;BME280;39616;48.872;9.390;2024-02-21T04:41:09;99060.13;;;5.50;100.00
53719;BME280;39616;48.872;9.390;2024-02-21T04:43:39;99053.84;;;5.45;100.00
53719;BME280;39616;48.872;9.390;2024-02-21T04:46:09;99052.16;;;5.39;100.00
53719;BME280;39616;48.872;9.390;2024-02-21T04:48:40;99038.03;;;5.31;100.00
53719;BME280;39616;48.872;9.390;2024-02-21T04:51:11;99038.78;;;5.27;100.00
53719;BME280;39616;48.872;9.390;2024-02-21T04:53:41;99039.81;;;5.26;100.00
53719;BME280;39616;48.872;9.390;2024-02-21T04:56:12;99047.22;;;5.19;100.00
53719;BME280;39616;48.872;9.390;2024-02-21T04:58:42;99044.22;;;5.15;100.00
53719;BME280;39616;48.872;9.390;2024-02-21T05:01:12;99052.28;;;5.15;100.00
53719;BME280;39616;48.872;9.390;2024-02-21T05:03:43;99060.34;;;5.15;100.00
53719;BME280;39616;48.872;9.390;2024-02-21T05:06:13;99062.22;;;5.15;100.00
53719;BME280;39616;48.872;9.390;2024-02-21T05:08:43;99072.91;;;5.09;100.00
53719;BME280;39616;48.872;9.390;2024-02-21T05:11:14;99066.72;;;5.09;100.00
53719;BME280;39616;48.872;9.390;2024-02-21T05:13:44;99069.28;;;5.04;100.00
53719;BME280;39616;48.872;9.390;2024-02-21T05:16:14;99063.09;;;5.03;100.00
53719;BME280;39616;48.872;9.390;2024-02-21T05:18:45;99062.44;;;4.96;100.00
53719;BME280;39616;48.872;9.390;2024-02-21T05:21:15;99056.72;;;4.93;100.00
53719;BME280;39616;48.872;9.390;2024-02-21T05:23:45;99051.19;;;4.82;100.00
53719;BME280;39616;48.872;9.390;2024-02-21T05:26:25;99050.34;;;4.82;100.00
53719;BME280;39616;48.872;9.390;2024-02-21T05:28:56;99044.44;;;4.80;100.00
53719;BME280;39616;48.872;9.390;2024-02-21T05:31:43;99021.19;;;4.74;100.00
53719;BME280;39616;48.872;9.390;2024-02-21T05:34:24;99008.75;;;4.68;100.00
53719;BME280;39616;48.872;9.390;2024-02-21T05:36:55;98994.53;;;4.55;100.00
53719;BME280;39616;48.872;9.390;2024-02-21T05:39:27;99008.75;;;4.39;100.00
53719;BME280;39616;48.872;9.390;2024-02-21T05:41:59;99007.63;;;4.23;100.00
53719;BME280;39616;48.872;9.390;2024-02-21T05:44:29;98999.94;;;4.15;100.00
53719;BME280;39616;48.872;9.390;2024-02-21T05:46:59;99004.88;;;4.06;100.00
53719;BME280;39616;48.872;9.390;2024-02-21T05:49:30;99000.44;;;4.00;100.00
53719;BME280;39616;48.872;9.390;2024-02-21T05:52:00;98999.88;;;3.98;100.00
53719;BME280;39616;48.872;9.390;2024-02-21T05:54:30;98993.47;;;3.99;100.00
53719;BME280;39616;48.872;9.390;2024-02-21T05:57:00;98996.94;;;4.00;100.00
53719;BME280;39616;48.872;9.390;2024-02-21T05:59:31;98990.06;;;4.04;100.00
53719;BME280;39616;48.872;9.390;2024-02-21T06:02:01;98987.50;;;4.09;100.00
53719;BME280;39616;48.872;9.390;2024-02-21T06:04:34;98982.22;;;4.14;100.00
53719;BME280;39616;48.872;9.390;2024-02-21T06:07:04;98978.25;;;4.17;100.00
53719;BME280;39616;48.872;9.390;2024-02-21T06:09:35;98974.75;;;4.16;100.00
53719;BME280;39616;48.872;9.390;2024-02-21T06:12:05;98976.72;;;4.21;100.00
53719;BME280;39616;48.872;9.390;2024-02-21T06:14:36;98987.06;;;4.29;100.00
53719;BME280;39616;48.872;9.390;2024-02-21T06:17:07;98982.13;;;4.38;100.00
53719;BME280;39616;48.872;9.390;2024-02-21T06:19:40;98982.78;;;4.45;100.00
53719;BME280;39616;48.872;9.390;2024-02-21T06:22:11;98986.59;;;4.60;100.00
53719;BME280;39616;48.872;9.390;2024-02-21T06:24:43;98985.94;;;4.70;100.00
53719;BME280;39616;48.872;9.390;2024-02-21T06:27:13;98984.97;;;4.76;100.00
53719;BME280;39616;48.872;9.390;2024-02-21T06:29:46;98981.56;;;4.81;100.00
53719;BME280;39616;48.872;9.390;2024-02-21T06:32:16;98981.66;;;4.86;100.00
53719;BME280;39616;48.872;9.390;2024-02-21T06:34:46;98977.97;;;4.92;100.00
53719;BME280;39616;48.872;9.390;2024-02-21T06:37:17;98981.66;;;4.86;100.00
53719;BME280;39616;48.872;9.390;2024-02-21T06:39:47;98992.31;;;4.81;100.00
53719;BME280;39616;48.872;9.390;2024-02-21T06:42:17;98993.25;;;4.75;100.00
53719;BME280;39616;48.872;9.390;2024-02-21T06:44:47;98994.31;;;4.74;100.00
53719;BME280;39616;48.872;9.390;2024-02-21T06:47:18;98993.25;;;4.75;100.00
53719;BME280;39616;48.872;9.390;2024-02-21T06:49:49;98995.13;;;4.74;100.00
53719;BME280;39616;48.872;9.390;2024-02-21T06:52:20;98991.50;;;4.80;100.00
53719;BME280;39616;48.872;9.390;2024-02-21T06:54:51;98988.50;;;4.94;100.00
53719;BME280;39616;48.872;9.390;2024-02-21T06:57:21;98979.03;;;5.08;99.59
53719;BME280;39616;48.872;9.390;2024-02-21T06:59:51;98975.28;;;5.26;97.87
53719;BME280;39616;48.872;9.390;2024-02-21T07:02:21;98972.81;;;5.41;96.16
53719;BME280;39616;48.872;9.390;2024-02-21T07:04:52;98966.47;;;5.47;96.32
53719;BME280;39616;48.872;9.390;2024-02-21T07:07:22;98974.25;;;5.66;96.11
53719;BME280;39616;48.872;9.390;2024-02-21T07:09:52;98964.25;;;5.83;93.33
53719;BME280;39616;48.872;9.390;2024-02-21T07:12:24;98960.47;;;6.01;93.21
53719;BME280;39616;48.872;9.390;2024-02-21T07:14:55;98963.59;;;6.15;91.37
53719;BME280;39616;48.872;9.390;2024-02-21T07:17:25;98964.28;;;6.27;88.80
53719;BME280;39616;48.872;9.390;2024-02-21T07:19:55;98953.34;;;6.39;86.98
53719;BME280;39616;48.872;9.390;2024-02-21T07:22:27;98965.75;;;6.40;88.25
53719;BME280;39616;48.872;9.390;2024-02-21T07:24:57;98960.44;;;6.45;87.31
53719;BME280;39616;48.872;9.390;2024-02-21T07:27:27;98948.28;;;6.42;87.84
53719;BME280;39616;48.872;9.390;2024-02-21T07:30:00;98955.53;;;6.42;88.61
53719;BME280;39616;48.872;9.390;2024-02-21T07:32:31;98958.13;;;6.59;88.45
53719;BME280;39616;48.872;9.390;2024-02-21T07:35:01;98964.84;;;6.83;87.42
53719;BME280;39616;48.872;9.390;2024-02-21T07:37:31;98952.22;;;6.89;88.05
53719;BME280;39616;48.872;9.390;2024-02-21T07:40:02;98954.63;;;7.22;85.36
53719;BME280;39616;48.872;9.390;2024-02-21T07:42:32;98957.16;;;7.39;84.94
53719;BME280;39616;48.872;9.390;2024-02-21T07:45:03;98956.72;;;7.53;81.49
53719;BME280;39616;48.872;9.390;2024-02-21T07:47:34;98950.88;;;7.66;81.72
53719;BME280;39616;48.872;9.390;2024-02-21T07:50:05;98946.13;;;7.88;81.20
53719;BME280;39616;48.872;9.390;2024-02-21T07:52:35;98935.88;;;7.95;80.60
53719;BME280;39616;48.872;9.390;2024-02-21T07:55:06;98922.91;;;8.03;79.99
53719;BME280;39616;48.872;9.390;2024-02-21T07:57:36;98914.31;;;8.21;78.20
53719;BME280;39616;48.872;9.390;2024-02-21T08:00:07;98906.03;;;8.38;77.47
53719;BME280;39616;48.872;9.390;2024-02-21T08:02:39;98899.81;;;8.42;76.79
53719;BME280;39616;48.872;9.390;2024-02-21T08:05:10;98899.81;;;8.58;75.45
53719;BME280;39616;48.872;9.390;2024-02-21T08:07:42;98897.66;;;8.50;74.76
53719;BME280;39616;48.872;9.390;2024-02-21T08:10:12;98901.47;;;8.49;75.25
53719;BME280;39616;48.872;9.390;2024-02-21T08:12:42;98909.03;;;8.52;74.85
53719;BME280;39616;48.872;9.390;2024-02-21T08:15:13;98911.75;;;8.72;74.81
53719;BME280;39616;48.872;9.390;2024-02-21T08:17:43;98906.88;;;8.64;72.85
53719;BME280;39616;48.872;9.390;2024-02-21T08:20:14;98900.38;;;8.65;74.00
53719;BME280;39616;48.872;9.390;2024-02-21T08:22:44;98905.00;;;8.85;74.99
53719;BME280;39616;48.872;9.390;2024-02-21T08:25:14;98906.31;;;9.08;73.44
53719;BME280;39616;48.872;9.390;2024-02-21T08:27:45;98893.56;;;9.24;71.68
53719;BME280;39616;48.872;9.390;2024-02-21T08:30:15;98894.91;;;9.36;72.17
53719;BME280;39616;48.872;9.390;2024-02-21T08:32:46;98890.47;;;9.71;70.54
53719;BME280;39616;48.872;9.390;2024-02-21T08:35:16;98884.69;;;9.93;69.06
53719;BME280;39616;48.872;9.390;2024-02-21T08:37:48;98888.63;;;10.16;69.16
53719;BME280;39616;48.872;9.390;2024-02-21T08:40:18;98881.13;;;10.03;69.20
53719;BME280;39616;48.872;9.390;2024-02-21T08:42:51;98885.97;;;10.11;68.51
53719;BME280;39616;48.872;9.390;2024-02-21T08:45:21;98882.72;;;10.09;68.92
53719;BME280;39616;48.872;9.390;2024-02-21T08:47:51;98881.28;;;9.72;68.86
53719;BME280;39616;48.872;9.390;2024-02-21T08:50:22;98882.09;;;9.67;69.18
53719;BME280;39616;48.872;9.390;2024-02-21T08:52:53;98870.78;;;9.55;70.40
53719;BME280;39616;48.872;9.390;2024-02-21T08:55:23;98868.84;;;9.61;70.50
53719;BME280;39616;48.872;9.390;2024-02-21T08:57:54;98862.94;;;9.54;71.74
53719;BME280;39616;48.872;9.390;2024-02-21T09:00:24;98868.63;;;9.47;71.74
53719;BME280;39616;48.872;9.390;2024-02-21T09:02:57;98857.78;;;9.57;70.01
53719;BME280;39616;48.872;9.390;2024-02-21T09:05:27;98859.09;;;9.60;69.81
53719;BME280;39616;48.872;9.390;2024-02-21T09:07:57;98855.00;;;9.67;70.33
53719;BME280;39616;48.872;9.390;2024-02-21T09:10:28;98848.28;;;9.65;70.18
53719;BME280;39616;48.872;9.390;2024-02-21T09:12:58;98846.63;;;9.69;68.86
53719;BME280;39616;48.872;9.390;2024-02-21T09:15:28;98836.38;;;9.56;68.80
53719;BME280;39616;48.872;9.390;2024-02-21T09:17:58;98842.31;;;9.63;70.03
53719;BME280;39616;48.872;9.390;2024-02-21T09:20:29;98830.34;;;9.74;68.74
53719;BME280;39616;48.872;9.390;2024-02-21T09:22:59;98833.31;;;9.78;68.62
53719;BME280;39616;48.872;9.390;2024-02-21T09:25:29;98833.38;;;9.62;68.37
53719;BME280;39616;48.872;9.390;2024-02-21T09:28:02;98830.63;;;9.73;69.67
53719;BME280;39616;48.872;9.390;2024-02-21T09:30:32;98833.59;;;9.76;67.81
53719;BME280;39616;48.872;9.390;2024-02-21T09:33:03;98834.72;;;9.60;68.94
53719;BME280;39616;48.872;9.390;2024-02-21T09:35:35;98826.09;;;9.53;68.75
53719;BME280;39616;48.872;9.390;2024-02-21T09:38:05;98828.50;;;9.59;69.15
53719;BME280;39616;48.872;9.390;2024-02-21T09:40:35;98830.88;;;9.71;68.37
53719;BME280;39616;48.872;9.390;2024-02-21T09:43:08;98820.97;;;10.06;67.36
53719;BME280;39616;48.872;9.390;2024-02-21T09:45:40;98823.81;;;10.30;66.34
53719;BME280;39616;48.872;9.390;2024-02-21T09:48:42;98817.91;;;10.86;65.97
53719;BME280;39616;48.872;9.390;2024-02-21T09:51:16;98824.16;;;10.86;63.90
53719;BME280;39616;48.872;9.390;2024-02-21T09:53:47;98822.63;;;10.75;64.07
53719;BME280;39616;48.872;9.390;2024-02-21T09:56:19;98822.00;;;10.83;65.56
53719;BME280;39616;48.872;9.390;2024-02-21T09:58:49;98809.34;;;11.03;63.77
53719;BME280;39616;48.872;9.390;2024-02-21T10:01:19;98810.28;;;11.17;64.98
53719;BME280;39616;48.872;9.390;2024-02-21T10:03:50;98806.81;;;11.35;63.53
53719;BME280;39616;48.872;9.390;2024-02-21T10:06:20;98809.09;;;10.70;63.93
53719;BME280;39616;48.872;9.390;2024-02-21T10:08:53;98810.53;;;10.92;64.20
53719;BME280;39616;48.872;9.390;2024-02-21T10:11:24;98806.38;;;10.99;64.54
53719;BME280;39616;48.872;9.390;2024-02-21T10:14:05;98803.50;;;11.15;63.70
53719;BME280;39616;48.872;9.390;2024-02-21T10:16:36;98794.22;;;11.21;63.71
53719;BME280;39616;48.872;9.390;2024-02-21T10:19:16;98792.06;;;11.42;62.67
53719;BME280;39616;48.872;9.390;2024-02-21T10:22:08;98787.97;;;11.20;62.91
53719;BME280;39616;48.872;9.390;2024-02-21T10:24:39;98786.91;;;10.92;63.62
53719;BME280;39616;48.872;9.390;2024-02-21T10:27:11;98783.41;;;10.92;65.46
53719;BME280;39616;48.872;9.390;2024-02-21T10:29:41;98763.31;;;11.17;63.53
53719;BME280;39616;48.872;9.390;2024-02-21T10:32:13;98766.19;;;11.25;64.79
53719;BME280;39616;48.872;9.390;2024-02-21T10:34:44;98760.91;;;11.58;63.23
53719;BME280;39616;48.872;9.390;2024-02-21T10:37:15;98757.84;;;11.83;61.77
53719;BME280;39616;48.872;9.390;2024-02-21T10:39:46;98757.31;;;12.19;62.18
53719;BME280;39616;48.872;9.390;2024-02-21T10:42:17;98751.63;;;12.35;59.83
53719;BME280;39616;48.872;9.390;2024-02-21T10:44:51;98746.66;;;12.69;58.22
53719;BME280;39616;48.872;9.390;2024-02-21T10:47:22;98748.47;;;12.60;58.02
53719;BME280;39616;48.872;9.390;2024-02-21T10:50:02;98750.81;;;12.80;57.18
53719;BME280;39616;48.872;9.390;2024-02-21T10:55:21;98729.66;;;12.64;58.27
53719;BME280;39616;48.872;9.390;2024-02-21T10:57:57;98724.91;;;12.69;57.41
53719;BME280;39616;48.872;9.390;2024-02-21T11:00:28;98721.09;;;12.70;57.14
53719;BME280;39616;48.872;9.390;2024-02-21T11:03:00;98722.53;;;12.35;60.34
53719;BME280;39616;48.872;9.390;2024-02-21T11:05:30;98712.59;;;12.58;58.63
53719;BME280;39616;48.872;9.390;2024-02-21T11:08:03;98714.34;;;12.68;58.13
53719;BME280;39616;48.872;9.390;2024-02-21T11:10:36;98700.53;;;12.78;56.97
53719;BME280;39616;48.872;9.390;2024-02-21T11:13:07;98692.75;;;12.57;58.74
53719;BME280;39616;48.872;9.390;2024-02-21T11:15:38;98691.75;;;12.53;56.57
53719;BME280;39616;48.872;9.390;2024-02-21T11:18:08;98686.78;;;12.42;57.51
53719;BME280;39616;48.872;9.390;2024-02-21T11:20:38;98676.72;;;12.42;58.35
53719;BME280;39616;48.872;9.390;2024-02-21T11:23:09;98675.81;;;12.47;57.32
53719;BME280;39616;48.872;9.390;2024-02-21T11:25:41;98673.16;;;12.28;59.08
53719;BME280;39616;48.872;9.390;2024-02-21T11:28:11;98663.88;;;12.15;58.45
53719;BME280;39616;48.872;9.390;2024-02-21T11:30:41;98657.13;;;12.13;58.72
53719;BME280;39616;48.872;9.390;2024-02-21T11:33:13;98647.69;;;12.24;58.81
53719;BME280;39616;48.872;9.390;2024-02-21T11:35:44;98638.75;;;12.51;56.59
53719;BME280;39616;48.872;9.390;2024-02-21T11:38:14;98632.88;;;12.44;56.58
53719;BME280;39616;48.872;9.390;2024-02-21T11:40:48;98635.13;;;12.42;57.08
53719;BME280;39616;48.872;9.390;2024-02-21T11:43:18;98628.94;;;12.22;57.23
53719;BME280;39616;48.872;9.390;2024-02-21T11:45:48;98627.75;;;12.42;54.89
53719;BME280;39616;48.872;9.390;2024-02-21T11:48:20;98625.22;;;12.32;54.20
53719;BME280;39616;48.872;9.390;2024-02-21T11:50:54;98617.69;;;12.43;56.39
53719;BME280;39616;48.872;9.390;2024-02-21T11:53:25;98610.75;;;12.64;54.50
53719;BME280;39616;48.872;9.390;2024-02-21T11:56:00;98605.91;;;12.61;55.30
53719;BME280;39616;48.872;9.390;2024-02-21T11:58:31;98597.81;;;12.84;52.13
53719;BME280;39616;48.872;9.390;2024-02-21T12:01:02;98598.03;;;12.73;53.50
53719;BME280;39616;48.872;9.390;2024-02-21T12:03:34;98599.66;;;12.61;52.79
53719;BME280;39616;48.872;9.390;2024-02-21T12:06:06;98584.13;;;12.61;53.86
53719;BME280;39616;48.872;9.390;2024-02-21T12:08:43;98579.31;;;12.58;54.39
53719;BME280;39616;48.872;9.390;2024-02-21T12:11:21;98570.13;;;12.68;52.41
53719;BME280;39616;48.872;9.390;2024-02-21T12:14:02;98568.09;;;12.73;53.40
53719;BME280;39616;48.872;9.390;2024-02-21T12:16:33;98571.84;;;12.64;52.67
53719;BME280;39616;48.872;9.390;2024-02-21T12:19:04;98565.50;;;12.54;52.62
53719;BME280;39616;48.872;9.390;2024-02-21T12:21:35;98555.94;;;12.57;52.97
53719;BME280;39616;48.872;9.390;2024-02-21T12:24:16;98557.94;;;12.65;52.82
53719;BME280;39616;48.872;9.390;2024-02-21T12:26:47;98550.69;;;12.61;53.46
53719;BME280;39616;48.872;9.390;2024-02-21T12:29:18;98542.72;;;12.64;52.17
53719;BME280;39616;48.872;9.390;2024-02-21T12:31:49;98534.97;;;12.57;53.29
53719;BME280;39616;48.872;9.390;2024-02-21T12:34:19;98538.81;;;12.56;54.01
53719;BME280;39616;48.872;9.390;2024-02-21T12:36:49;98523.78;;;12.59;52.98
53719;BME280;39616;48.872;9.390;2024-02-21T12:39:20;98526.28;;;12.69;52.34
53719;BME280;39616;48.872;9.390;2024-02-21T12:41:50;98512.81;;;12.64;50.90
53719;BME280;39616;48.872;9.390;2024-02-21T12:44:20;98516.66;;;12.63;51.72
53719;BME280;39616;48.872;9.390;2024-02-21T12:46:51;98505.31;;;12.70;50.64
53719;BME280;39616;48.872;9.390;2024-02-21T12:49:26;98504.72;;;12.73;50.93
53719;BME280;39616;48.872;9.390;2024-02-21T12:51:59;98493.25;;;12.62;50.75
53719;BME280;39616;48.872;9.390;2024-02-21T12:54:29;98493.84;;;12.59;51.47
53719;BME280;39616;48.872;9.390;2024-02-21T12:57:01;98480.16;;;12.64;50.67
53719;BME280;39616;48.872;9.390;2024-02-21T12:59:33;98468.13;;;12.79;49.72
53719;BME280;39616;48.872;9.390;2024-02-21T13:02:03;98469.06;;;12.74;49.59
53719;BME280;39616;48.872;9.390;2024-02-21T13:04:33;98464.50;;;12.70;50.74
53719;BME280;39616;48.872;9.390;2024-02-21T13:07:04;98459.78;;;12.75;50.02
53719;BME280;39616;48.872;9.390;2024-02-21T13:09:36;98460.63;;;12.85;51.92
53719;BME280;39616;48.872;9.390;2024-02-21T13:12:07;98440.41;;;12.99;49.54
53719;BME280;39616;48.872;9.390;2024-02-21T13:14:37;98427.75;;;12.95;49.38
53719;BME280;39616;48.872;9.390;2024-02-21T13:17:09;98424.59;;;13.01;49.53
53719;BME280;39616;48.872;9.390;2024-02-21T13:19:39;98420.31;;;12.87;48.85
53719;BME280;39616;48.872;9.390;2024-02-21T13:22:09;98422.44;;;13.12;49.46
53719;BME280;39616;48.872;9.390;2024-02-21T13:24:39;98416.22;;;13.20;48.29
53719;BME280;39616;48.872;9.390;2024-02-21T13:27:10;98401.94;;;13.15;48.61
53719;BME280;39616;48.872;9.390;2024-02-21T13:29:40;98402.25;;;13.13;47.90